Time;durP1;ratioP1;P1;durP2;ratioP2;P2;SDS_P1;SDS_P2;PMS_P1;PMS_P2;Temp;Humidity;BMP_temperature;BMP_pressure;BME280_temperature;BME280_humidity;BME280_pressure;Samples;Min_cycle;Max_cycle;Signal;HPM_P1;HPM_P2
2023/08/17 00:00:03;;;;;;;2.17;0.90;;;15.10;99.90;;;;;;5133721;28;20050;-84
2023/08/17 00:02:29;;;;;;;2.13;1.35;;;15.10;99.90;;;;;;5132393;28;20039;-85
2023/08/17 00:04:55;;;;;;;1.90;0.70;;;15.10;99.90;;;;;;5133261;28;20050;-85
2023/08/17 00:07:20;;;;;;;1.45;0.50;;;15.10;99.90;;;;;;5115067;28;20039;-84
2023/08/17 00:09:47;;;;;;;1.17;0.60;;;15.10;99.90;;;;;;5133245;28;20035;-85
2023/08/17 00:12:13;;;;;;;2.95;0.60;;;15.20;99.90;;;;;;5133688;27;20039;-84
2023/08/17 00:14:39;;;;;;;1.38;1.23;;;15.00;99.90;;;;;;5132169;28;20039;-84
2023/08/17 00:17:05;;;;;;;1.33;0.63;;;15.00;99.90;;;;;;5133509;28;20046;-86
2023/08/17 00:19:30;;;;;;;2.55;0.50;;;15.00;99.90;;;;;;5131767;28;20047;-85
2023/08/17 00:21:56;;;;;;;0.95;0.55;;;15.10;99.90;;;;;;5131732;28;20051;-85
2023/08/17 00:24:22;;;;;;;1.55;0.55;;;14.90;99.90;;;;;;5133398;28;20169;-85
2023/08/17 00:26:48;;;;;;;1.92;0.70;;;14.90;99.90;;;;;;5133097;28;20035;-85
2023/08/17 00:29:14;;;;;;;1.45;0.50;;;14.90;99.90;;;;;;5117572;27;20075;-84
2023/08/17 00:31:41;;;;;;;2.35;0.60;;;14.90;99.90;;;;;;5118907;27;20507;-84
2023/08/17 00:34:07;;;;;;;2.15;0.60;;;14.90;99.90;;;;;;5137214;27;20047;-86
2023/08/17 00:36:34;;;;;;;3.42;0.50;;;15.00;99.90;;;;;;5137216;27;20046;-85
2023/08/17 00:39:00;;;;;;;1.33;0.50;;;15.00;99.90;;;;;;5135817;27;20084;-87
2023/08/17 00:41:28;;;;;;;4.15;0.88;;;15.00;99.90;;;;;;5135702;27;20142;-86
2023/08/17 00:43:54;;;;;;;4.90;0.80;;;15.00;99.90;;;;;;5135778;27;20039;-86
2023/08/17 00:46:22;;;;;;;2.95;0.73;;;15.00;99.90;;;;;;5136036;27;20512;-86
2023/08/17 00:48:48;;;;;;;1.15;0.50;;;15.00;99.90;;;;;;5136868;27;20043;-86
2023/08/17 00:51:14;;;;;;;3.28;0.80;;;15.00;99.90;;;;;;5118201;27;20447;-86
2023/08/17 00:53:41;;;;;;;1.67;0.70;;;15.00;99.90;;;;;;5135413;27;20554;-84
2023/08/17 00:56:08;;;;;;;1.25;0.68;;;15.00;99.90;;;;;;5136687;27;20397;-85
2023/08/17 00:58:34;;;;;;;1.42;0.85;;;15.00;99.90;;;;;;5134554;27;20047;-87
2023/08/17 01:01:01;;;;;;;2.72;0.80;;;15.00;99.90;;;;;;5134967;27;20054;-85
2023/08/17 01:03:29;;;;;;;2.25;0.70;;;15.00;99.90;;;;;;5135143;27;20051;-85
2023/08/17 01:05:56;;;;;;;0.93;0.50;;;15.00;99.90;;;;;;5135218;27;20489;-87
2023/08/17 01:08:22;;;;;;;1.58;0.50;;;14.90;99.90;;;;;;5135693;27;20124;-85
2023/08/17 01:10:58;;;;;;;1.13;0.50;;;14.90;99.90;;;;;;5135949;27;20120;-85
2023/08/17 01:13:47;;;;;;;2.20;0.60;;;14.90;99.90;;;;;;5136502;27;20071;-85
2023/08/17 01:16:24;;;;;;;0.63;0.52;;;14.90;99.90;;;;;;5135557;27;20050;-86
2023/08/17 01:18:51;;;;;;;0.98;0.40;;;14.80;99.90;;;;;;5134915;27;20046;-85
2023/08/17 01:21:19;;;;;;;0.80;0.50;;;14.80;99.90;;;;;;5134736;27;20191;-88
2023/08/17 01:23:46;;;;;;;3.15;0.70;;;14.70;99.90;;;;;;5134981;27;20112;-86
2023/08/17 01:26:15;;;;;;;0.77;0.60;;;14.70;99.90;;;;;;5117450;27;20043;-86
2023/08/17 01:28:42;;;;;;;0.77;0.50;;;14.60;99.90;;;;;;5136438;27;20130;-86
2023/08/17 01:31:20;;;;;;;1.20;0.80;;;14.60;99.90;;;;;;5117757;27;20080;-85
2023/08/17 01:33:56;;;;;;;1.02;0.70;;;14.60;99.90;;;;;;5135717;27;20841;-85
2023/08/17 01:36:28;;;;;;;3.33;0.60;;;14.60;99.90;;;;;;5135168;27;20512;-88
2023/08/17 01:38:56;;;;;;;1.45;0.50;;;14.50;99.90;;;;;;5135947;27;20043;-86
2023/08/17 01:41:25;;;;;;;2.38;0.50;;;14.50;99.90;;;;;;5135811;27;20088;-85
2023/08/17 01:43:51;;;;;;;1.77;0.60;;;14.50;99.90;;;;;;5135870;27;20039;-86
2023/08/17 01:46:18;;;;;;;1.65;0.70;;;14.50;99.90;;;;;;5135001;27;20043;-86
2023/08/17 01:48:44;;;;;;;1.35;0.60;;;14.50;99.90;;;;;;5117193;27;20039;-86
2023/08/17 01:51:12;;;;;;;1.75;0.70;;;14.50;99.90;;;;;;5136197;27;20361;-86
2023/08/17 01:53:37;;;;;;;1.55;0.60;;;14.40;99.90;;;;;;5134277;27;20043;-86
2023/08/17 01:56:03;;;;;;;1.55;0.60;;;14.40;99.90;;;;;;5134631;27;20107;-85
2023/08/17 01:58:29;;;;;;;0.63;0.60;;;14.50;99.90;;;;;;5134509;27;20085;-87
2023/08/17 02:00:55;;;;;;;0.70;0.50;;;14.40;99.90;;;;;;5134285;27;20047;-86
2023/08/17 02:03:21;;;;;;;3.35;0.60;;;14.40;99.90;;;;;;5134423;27;20074;-88
2023/08/17 02:05:46;;;;;;;1.77;0.70;;;14.40;99.90;;;;;;5135917;27;20523;-87
2023/08/17 02:08:12;;;;;;;1.50;0.68;;;14.40;99.90;;;;;;5136046;27;20497;-85
2023/08/17 02:10:38;;;;;;;3.70;1.00;;;14.30;99.90;;;;;;5117460;27;20481;-86
2023/08/17 02:13:04;;;;;;;1.38;0.77;;;14.30;99.90;;;;;;5134249;27;20043;-86
2023/08/17 02:15:30;;;;;;;1.50;0.60;;;14.40;99.90;;;;;;5135413;27;20069;-85
2023/08/17 02:17:59;;;;;;;2.17;0.80;;;14.30;99.90;;;;;;5134327;27;20062;-86
2023/08/17 02:20:25;;;;;;;3.05;0.50;;;14.30;99.90;;;;;;5136475;27;20039;-85
2023/08/17 02:22:50;;;;;;;0.85;0.47;;;14.30;99.90;;;;;;5134387;27;20487;-85
2023/08/17 02:25:16;;;;;;;1.75;0.50;;;14.30;99.90;;;;;;5134860;27;20112;-85
2023/08/17 02:27:42;;;;;;;1.23;0.50;;;14.30;99.90;;;;;;5135264;27;20049;-85
2023/08/17 02:30:08;;;;;;;0.88;0.40;;;14.30;99.90;;;;;;5136725;27;20081;-87
2023/08/17 02:32:34;;;;;;;6.05;0.85;;;14.30;99.90;;;;;;5136712;27;20389;-87
2023/08/17 02:35:00;;;;;;;2.35;0.60;;;14.30;99.90;;;;;;5138400;27;20043;-86
2023/08/17 02:37:25;;;;;;;1.20;0.45;;;14.20;99.90;;;;;;5122181;27;20477;-86
2023/08/17 02:39:51;;;;;;;0.60;0.50;;;14.20;99.90;;;;;;5138571;27;20050;-89
2023/08/17 02:42:17;;;;;;;2.20;0.70;;;14.10;99.90;;;;;;5138887;27;20134;-86
2023/08/17 02:44:42;;;;;;;2.38;0.60;;;14.10;99.90;;;;;;5136644;27;20126;-88
2023/08/17 02:47:08;;;;;;;2.28;0.55;;;14.10;99.90;;;;;;5133984;27;20051;-87
2023/08/17 02:49:35;;;;;;;2.20;0.50;;;14.10;99.90;;;;;;5133594;27;20046;-87
2023/08/17 02:52:00;;;;;;;0.75;0.40;;;14.10;99.90;;;;;;5133307;27;20051;-91
2023/08/17 02:54:26;;;;;;;0.60;0.40;;;14.20;99.90;;;;;;5133767;27;20076;-89
2023/08/17 02:56:52;;;;;;;1.10;0.50;;;14.20;99.90;;;;;;5134364;27;20129;-89
2023/08/17 02:59:18;;;;;;;2.25;0.30;;;14.10;99.90;;;;;;5133477;27;20042;-86
2023/08/17 03:01:45;;;;;;;1.23;0.30;;;14.10;99.90;;;;;;5134428;27;20043;-86
2023/08/17 03:04:11;;;;;;;3.22;0.40;;;14.30;99.90;;;;;;5133480;27;20074;-88
2023/08/17 03:06:36;;;;;;;0.55;0.40;;;14.10;99.90;;;;;;5134395;27;20086;-89
2023/08/17 03:09:02;;;;;;;2.35;0.57;;;14.10;99.90;;;;;;5133445;27;20046;-86
2023/08/17 03:11:28;;;;;;;2.80;0.50;;;14.10;99.90;;;;;;5133361;27;20095;-86
2023/08/17 03:13:59;;;;;;;1.10;0.50;;;14.10;99.90;;;;;;5115504;27;20047;-85
2023/08/17 03:16:26;;;;;;;1.30;0.45;;;14.10;99.90;;;;;;5132718;27;20040;-89
2023/08/17 03:18:52;;;;;;;1.13;0.55;;;14.10;99.90;;;;;;5132926;27;20039;-90
2023/08/17 03:21:19;;;;;;;1.63;0.75;;;14.10;99.90;;;;;;5134288;27;20039;-90
2023/08/17 03:23:45;;;;;;;0.90;0.50;;;14.10;99.90;;;;;;5133502;27;20051;-89
2023/08/17 03:26:11;;;;;;;0.57;0.47;;;14.10;99.90;;;;;;5134872;27;20035;-92
2023/08/17 03:28:37;;;;;;;1.98;0.50;;;14.10;99.90;;;;;;5133598;27;20120;-88
2023/08/17 03:31:03;;;;;;;0.85;0.40;;;14.10;99.90;;;;;;5133029;27;20485;-91
2023/08/17 03:33:29;;;;;;;2.58;0.60;;;14.20;99.90;;;;;;5134221;27;20110;-91
2023/08/17 03:35:54;;;;;;;1.27;0.32;;;14.20;99.90;;;;;;5133344;27;20507;-89
2023/08/17 03:38:20;;;;;;;0.75;0.55;;;14.20;99.90;;;;;;5133079;27;20051;-89
2023/08/17 03:40:48;;;;;;;4.30;0.77;;;14.20;99.90;;;;;;5133611;27;20438;-90
2023/08/17 03:43:14;;;;;;;2.95;0.95;;;14.20;99.90;;;;;;5134054;28;20404;-88
2023/08/17 03:45:44;;;;;;;4.55;0.50;;;14.20;99.90;;;;;;5134343;28;20047;-91
2023/08/17 03:48:10;;;;;;;2.53;1.88;;;14.20;99.90;;;;;;5132509;28;20047;-88
2023/08/17 03:50:36;;;;;;;0.55;0.40;;;14.20;99.90;;;;;;5133074;28;20073;-89
2023/08/17 03:53:01;;;;;;;0.98;0.38;;;14.20;99.90;;;;;;5132687;28;20138;-87
2023/08/17 03:55:27;;;;;;;1.90;0.63;;;14.20;99.90;;;;;;5134023;27;20126;-87
2023/08/17 03:57:53;;;;;;;2.60;0.73;;;14.30;99.90;;;;;;5115959;28;20139;-89
2023/08/17 04:00:21;;;;;;;1.80;0.80;;;14.30;99.90;;;;;;5132310;28;20057;-90
2023/08/17 04:02:47;;;;;;;1.83;0.50;;;14.30;99.90;;;;;;5134109;27;20047;-87
2023/08/17 04:05:13;;;;;;;1.83;0.70;;;14.30;99.90;;;;;;5136431;27;20035;-88
2023/08/17 04:07:39;;;;;;;2.58;0.55;;;14.50;99.90;;;;;;5136615;27;20046;-87
2023/08/17 04:10:08;;;;;;;1.63;0.80;;;14.50;99.90;;;;;;5120206;27;20424;-89
2023/08/17 04:12:34;;;;;;;1.00;0.50;;;14.60;99.90;;;;;;5138506;27;20058;-88
2023/08/17 04:15:00;;;;;;;1.27;0.40;;;14.60;99.90;;;;;;5136744;27;20045;-86
2023/08/17 04:17:26;;;;;;;1.10;0.63;;;14.60;99.90;;;;;;5136890;27;20039;-86
2023/08/17 04:20:22;;;;;;;4.10;0.50;;;14.60;99.90;;;;;;5136065;27;20052;-90
2023/08/17 04:22:48;;;;;;;0.85;0.40;;;14.60;99.90;;;;;;5117262;28;20066;-93
